createdAt,value
2022-10-09T00:00:12.421Z,102168.28
2022-10-09T00:02:40.412Z,102163.97
2022-10-09T00:05:09.011Z,102163.22
2022-10-09T00:07:36.840Z,102166.06
2022-10-09T00:10:05.534Z,102170.75
2022-10-09T00:12:33.419Z,102173.66
2022-10-09T00:15:02.585Z,102170.91
2022-10-09T00:17:30.508Z,102172.22
2022-10-09T00:19:58.410Z,102174.94
2022-10-09T00:22:27.963Z,102167.06
2022-10-09T00:24:55.816Z,102161.78
2022-10-09T00:27:24.140Z,102168.22
2022-10-09T00:29:52.531Z,102173.03
2022-10-09T00:32:21.677Z,102172.03
2022-10-09T00:34:49.526Z,102163.25
2022-10-09T00:37:17.317Z,102167.84
2022-10-09T00:39:45.185Z,102161.56
2022-10-09T00:42:13.836Z,102157.09
2022-10-09T00:44:57.306Z,102157.97
2022-10-09T00:47:31.290Z,102156.31
2022-10-09T00:50:09.360Z,102153.69
2022-10-09T00:52:37.364Z,102161.19
2022-10-09T00:55:09.085Z,102161.19
2022-10-09T00:57:39.902Z,102158.44
2022-10-09T01:00:10.617Z,102159.47
2022-10-09T01:02:40.723Z,102164.94
2022-10-09T01:05:10.874Z,102165.03
2022-10-09T01:07:48.546Z,102162.38
2022-10-09T01:10:28.394Z,102171.53
2022-10-09T01:13:05.477Z,102168.03
2022-10-09T01:15:39.253Z,102170.75
2022-10-09T01:18:14.101Z,102170.00
2022-10-09T01:20:48.154Z,102165.59
2022-10-09T01:23:42.264Z,102166.66
2022-10-09T01:26:19.593Z,102164.03
2022-10-09T01:28:53.485Z,102162.38
2022-10-09T01:31:24.317Z,102159.03
2022-10-09T01:33:52.602Z,102161.84
2022-10-09T01:36:23.096Z,102161.84
2022-10-09T01:38:51.440Z,102156.59
2022-10-09T01:41:19.667Z,102153.97
2022-10-09T01:43:48.849Z,102147.63
2022-10-09T01:46:22.331Z,102153.16
2022-10-09T01:48:58.930Z,102154.28
2022-10-09T01:51:31.642Z,102150.75
2022-10-09T01:54:06.058Z,102150.84
2022-10-09T01:56:37.733Z,102143.59
2022-10-09T01:59:15.831Z,102144.50
2022-10-09T02:01:45.540Z,102139.31
2022-10-09T02:04:15.689Z,102134.81
2022-10-09T02:06:46.479Z,102136.69
2022-10-09T02:09:17.939Z,102127.59
2022-10-09T02:11:52.200Z,102129.50
2022-10-09T02:14:22.613Z,102134.97
2022-10-09T02:17:00.709Z,102126.88
2022-10-09T02:19:32.889Z,102124.22
2022-10-09T02:22:06.720Z,102123.56
2022-10-09T02:24:35.327Z,102120.03
2022-10-09T02:27:03.762Z,102120.03
2022-10-09T02:29:33.397Z,102116.41
2022-10-09T02:32:01.305Z,102123.81
2022-10-09T02:34:29.178Z,102116.72
2022-10-09T02:36:56.967Z,102113.03
2022-10-09T02:39:24.997Z,102115.94
2022-10-09T02:41:52.781Z,102116.03
2022-10-09T02:44:23.192Z,102118.84
2022-10-09T02:46:52.440Z,102121.56
2022-10-09T02:49:20.266Z,102117.19
2022-10-09T02:51:48.028Z,102133.69
2022-10-09T02:54:16.229Z,102119.22
2022-10-09T02:56:44.108Z,102118.44
2022-10-09T02:59:11.919Z,102117.69
2022-10-09T03:01:39.944Z,102121.38
2022-10-09T03:04:09.133Z,102111.41
2022-10-09T03:06:39.125Z,102118.03
2022-10-09T03:09:07.098Z,102118.16
2022-10-09T03:11:35.055Z,102121.13
2022-10-09T03:14:02.831Z,102116.66
2022-10-09T03:16:30.668Z,102114.97
2022-10-09T03:19:00.041Z,102121.44
2022-10-09T03:21:29.669Z,102111.47
2022-10-09T03:23:57.509Z,102121.59
2022-10-09T03:26:27.934Z,102122.56
2022-10-09T03:28:56.683Z,102113.72
2022-10-09T03:34:14.326Z,102117.66
2022-10-09T03:36:43.538Z,102116.78
2022-10-09T03:39:11.469Z,102112.41
2022-10-09T03:41:39.248Z,102110.72
2022-10-09T03:44:07.111Z,102107.22
2022-10-09T03:46:34.893Z,102104.69
2022-10-09T03:49:02.722Z,102100.19
2022-10-09T03:51:30.461Z,102106.63
2022-10-09T03:53:59.599Z,102102.13
2022-10-09T03:56:27.546Z,102100.53
2022-10-09T03:58:55.338Z,102096.16
2022-10-09T04:01:23.183Z,102107.16
2022-10-09T04:03:51.021Z,102104.59
2022-10-09T04:06:18.739Z,102104.69
2022-10-09T04:08:46.546Z,102104.88
2022-10-09T04:11:15.829Z,102110.34
2022-10-09T04:13:43.574Z,102111.47
2022-10-09T04:16:12.723Z,102111.69
2022-10-09T04:18:41.217Z,102106.31
2022-10-09T04:21:09.391Z,102118.28
2022-10-09T04:23:37.272Z,102116.59
2022-10-09T04:26:05.059Z,102108.53
2022-10-09T04:28:34.598Z,102109.50
2022-10-09T04:31:02.395Z,102114.22
2022-10-09T04:33:30.159Z,102107.97
2022-10-09T04:35:58.290Z,102110.81
2022-10-09T04:38:26.475Z,102104.47
2022-10-09T04:40:58.380Z,102097.28
2022-10-09T04:43:26.312Z,102102.00
2022-10-09T04:45:55.556Z,102097.44
2022-10-09T04:48:23.987Z,102092.06
2022-10-09T04:50:51.742Z,102084.84
2022-10-09T04:53:19.532Z,102087.69
2022-10-09T04:55:47.464Z,102090.50
2022-10-09T04:58:15.629Z,102085.94
2022-10-09T05:00:44.222Z,102093.22
2022-10-09T05:03:14.010Z,102086.81
2022-10-09T05:05:42.021Z,102083.34
2022-10-09T05:08:09.858Z,102083.34
2022-10-09T05:10:37.722Z,102085.13
2022-10-09T05:13:05.488Z,102083.34
2022-10-09T05:15:36.928Z,102080.59
2022-10-09T05:18:04.993Z,102075.22
2022-10-09T05:20:34.121Z,102077.00
2022-10-09T05:23:01.929Z,102081.66
2022-10-09T05:25:29.711Z,102083.53
2022-10-09T05:27:57.506Z,102072.63
2022-10-09T05:30:25.233Z,102077.28
2022-10-09T05:32:53.012Z,102074.63
2022-10-09T05:35:20.752Z,102072.78
2022-10-09T05:37:49.917Z,102069.19
2022-10-09T05:40:18.015Z,102078.41
2022-10-09T05:42:45.895Z,102076.66
2022-10-09T05:45:13.863Z,102073.16
2022-10-09T05:47:41.681Z,102074.03
2022-10-09T05:50:12.977Z,102071.38
2022-10-09T05:52:40.930Z,102073.41
2022-10-09T05:55:10.510Z,102078.78
2022-10-09T05:57:38.533Z,102078.06
2022-10-09T06:00:07.249Z,102076.19
2022-10-09T06:02:40.126Z,102071.84
2022-10-09T06:05:08.510Z,102083.63
2022-10-09T06:07:36.291Z,102079.13
2022-10-09T06:10:04.438Z,102079.13
2022-10-09T06:12:33.547Z,102080.00
2022-10-09T06:15:02.296Z,102075.53
2022-10-09T06:17:30.074Z,102082.81
2022-10-09T06:19:58.643Z,102076.47
2022-10-09T06:22:26.812Z,102087.38
2022-10-09T06:24:54.723Z,102080.97
2022-10-09T06:27:22.467Z,102089.16
2022-10-09T06:29:53.313Z,102085.34
2022-10-09T06:32:21.219Z,102084.38
2022-10-09T06:34:48.973Z,102094.06
2022-10-09T06:37:16.756Z,102088.19
2022-10-09T06:39:44.500Z,102090.22
2022-10-09T06:42:12.259Z,102090.19
2022-10-09T06:44:52.443Z,102085.34
2022-10-09T06:47:20.280Z,102085.00
2022-10-09T06:49:48.022Z,102090.63
2022-10-09T06:52:15.809Z,102097.22
2022-10-09T06:54:43.537Z,102090.91
2022-10-09T06:57:11.292Z,102085.41
2022-10-09T06:59:40.424Z,102097.06
2022-10-09T07:02:10.025Z,102084.19
2022-10-09T07:04:37.841Z,102090.56
2022-10-09T07:07:05.610Z,102089.41
2022-10-09T07:09:33.329Z,102091.97
2022-10-09T07:12:01.079Z,102089.22
2022-10-09T07:14:31.251Z,102087.00
2022-10-09T07:16:59.007Z,102096.03
2022-10-09T07:19:28.141Z,102086.59
2022-10-09T07:21:56.118Z,102085.75
2022-10-09T07:24:25.342Z,102086.72
2022-10-09T07:26:55.340Z,102084.91
2022-10-09T07:29:23.212Z,102087.69
2022-10-09T07:31:50.986Z,102090.75
2022-10-09T07:34:21.371Z,102092.03
2022-10-09T07:36:50.498Z,102089.91
2022-10-09T07:39:19.644Z,102082.38
2022-10-09T07:41:47.853Z,102088.75
2022-10-09T07:44:15.661Z,102087.59
2022-10-09T07:46:44.439Z,102087.59
2022-10-09T07:49:12.332Z,102074.78
2022-10-09T07:51:40.107Z,102071.13
2022-10-09T07:54:11.168Z,102070.34
2022-10-09T07:56:39.605Z,102062.84
2022-10-09T07:59:09.458Z,102063.59
2022-10-09T08:01:37.484Z,102067.34
2022-10-09T08:04:05.899Z,102060.50
2022-10-09T08:06:34.393Z,102061.75
2022-10-09T08:09:04.745Z,102060.28
2022-10-09T08:11:35.181Z,102058.09
2022-10-09T08:14:03.029Z,102061.50
2022-10-09T08:16:33.206Z,102060.03
2022-10-09T08:19:02.873Z,102055.06
2022-10-09T08:21:32.812Z,102063.69
2022-10-09T08:24:01.071Z,102062.22
2022-10-09T08:26:34.607Z,102068.72
2022-10-09T08:29:04.832Z,102069.84
2022-10-09T08:31:33.589Z,102067.22
2022-10-09T08:34:03.706Z,102062.47
2022-10-09T08:36:32.415Z,102062.34
2022-10-09T08:39:00.181Z,102058.47
2022-10-09T08:41:44.213Z,102046.91
2022-10-09T08:44:18.183Z,102050.28
2022-10-09T08:46:54.374Z,102045.28
2022-10-09T08:49:28.360Z,102043.00
2022-10-09T08:51:59.118Z,102046.50
2022-10-09T08:54:34.463Z,102052.34
2022-10-09T08:57:05.567Z,102044.00
2022-10-09T08:59:33.502Z,102035.06
2022-10-09T09:02:09.643Z,102031.84
2022-10-09T09:04:52.379Z,102031.97
2022-10-09T09:07:30.961Z,102027.22
2022-10-09T09:10:03.992Z,102023.59
2022-10-09T09:12:44.186Z,102029.81
2022-10-09T09:15:29.399Z,102025.34
2022-10-09T09:18:07.747Z,102020.53
2022-10-09T09:20:45.081Z,102023.91
2022-10-09T09:23:16.992Z,102003.34
2022-10-09T09:25:46.684Z,102012.25
2022-10-09T09:28:21.358Z,102003.91
2022-10-09T09:30:52.857Z,102006.00
2022-10-09T09:33:36.646Z,101996.94
2022-10-09T09:36:10.390Z,101997.97
2022-10-09T09:39:01.254Z,101998.44
2022-10-09T09:41:28.300Z,101996.47
2022-10-09T09:43:58.686Z,101979.09
2022-10-09T09:46:30.219Z,101981.94
2022-10-09T09:48:58.121Z,101980.66
2022-10-09T09:51:29.656Z,101978.66
2022-10-09T09:54:00.671Z,101972.75
2022-10-09T09:57:10.591Z,101976.56
2022-10-09T09:59:34.909Z,101968.84
2022-10-09T10:02:04.975Z,101969.00
2022-10-09T10:04:33.644Z,101956.81
2022-10-09T10:07:01.393Z,101951.72
2022-10-09T10:09:29.205Z,101954.34
2022-10-09T10:11:59.524Z,101953.78
2022-10-09T10:14:27.969Z,101945.22
2022-10-09T10:17:02.471Z,101947.41
2022-10-09T10:19:34.899Z,101936.81
2022-10-09T10:22:06.448Z,101948.44
2022-10-09T10:24:38.885Z,101938.31
2022-10-09T10:27:14.915Z,101933.38
2022-10-09T10:29:47.962Z,101932.78
2022-10-09T10:32:22.719Z,101926.94
2022-10-09T10:34:54.721Z,101931.16
2022-10-09T10:37:32.537Z,101922.88
2022-10-09T10:40:06.039Z,101910.69
2022-10-09T10:42:43.774Z,101916.63
2022-10-09T10:45:17.024Z,101906.59
2022-10-09T10:47:52.549Z,101897.88
2022-10-09T10:50:21.578Z,101897.88
2022-10-09T10:53:02.477Z,101900.03
2022-10-09T10:55:49.910Z,101889.53
2022-10-09T10:58:26.182Z,101888.09
2022-10-09T11:01:07.515Z,101885.88
2022-10-09T11:03:54.009Z,101887.06
2022-10-09T11:06:27.023Z,101881.19
2022-10-09T11:09:10.217Z,101876.13
2022-10-09T11:11:44.878Z,101871.59
2022-10-09T11:14:29.725Z,101862.69
2022-10-09T11:17:06.796Z,101857.03
2022-10-09T11:19:58.930Z,101849.75
2022-10-09T11:22:50.428Z,101867.94
2022-10-09T11:25:29.527Z,101840.81
2022-10-09T11:28:03.351Z,101834.03
2022-10-09T11:30:38.163Z,101831.50
2022-10-09T11:33:13.671Z,101827.09
2022-10-09T11:35:49.472Z,101821.28
2022-10-09T11:38:27.162Z,101823.25
2022-10-09T11:40:56.673Z,101811.88
2022-10-09T11:43:53.786Z,101807.44
2022-10-09T11:46:30.514Z,101811.38
2022-10-09T11:49:08.521Z,101802.44
2022-10-09T11:51:46.364Z,101792.63
2022-10-09T11:54:16.969Z,101782.81
2022-10-09T11:56:55.334Z,101786.50
2022-10-09T11:59:30.074Z,101783.28
2022-10-09T12:01:59.204Z,101778.00
2022-10-09T12:04:53.448Z,101776.34
2022-10-09T12:07:30.574Z,101772.25
2022-10-09T12:10:02.876Z,101766.22
2022-10-09T12:12:31.046Z,101759.66
2022-10-09T12:14:59.501Z,101753.44
2022-10-09T12:17:35.657Z,101746.41
2022-10-09T12:20:07.659Z,101740.53
2022-10-09T12:22:41.516Z,101735.69
2022-10-09T12:25:18.015Z,101743.34
2022-10-09T12:27:47.249Z,101721.19
2022-10-09T12:30:21.386Z,101725.56
2022-10-09T12:32:55.290Z,101719.84
2022-10-09T12:35:27.282Z,101724.53
2022-10-09T12:37:56.544Z,101712.72
2022-10-09T12:40:27.242Z,101718.25
2022-10-09T12:42:57.258Z,101714.31
2022-10-09T12:45:27.590Z,101704.41
2022-10-09T12:47:55.892Z,101706.16
2022-10-09T12:50:26.336Z,101703.38
2022-10-09T12:52:58.388Z,101701.81
2022-10-09T12:55:29.066Z,101684.50
2022-10-09T12:58:00.482Z,101685.03
2022-10-09T13:00:28.511Z,101671.31
2022-10-09T13:02:56.584Z,101677.72
2022-10-09T13:05:24.759Z,101678.44
2022-10-09T13:07:54.762Z,101664.28
2022-10-09T13:10:28.109Z,101664.97
2022-10-09T13:13:01.161Z,101656.66
2022-10-09T13:15:32.378Z,101653.72
2022-10-09T13:18:00.317Z,101646.44
2022-10-09T13:20:30.344Z,101648.16
2022-10-09T13:23:00.185Z,101637.09
2022-10-09T13:25:33.483Z,101638.84
2022-10-09T13:28:01.352Z,101632.75
2022-10-09T13:30:29.313Z,101624.78
2022-10-09T13:32:57.278Z,101620.25
2022-10-09T13:35:25.257Z,101628.75
2022-10-09T13:37:53.221Z,101625.59
2022-10-09T13:40:22.314Z,101612.94
2022-10-09T13:42:55.428Z,101607.41
2022-10-09T13:45:23.861Z,101607.91
2022-10-09T13:47:52.092Z,101604.44
2022-10-09T13:50:20.739Z,101603.72
2022-10-09T13:52:48.567Z,101603.88
2022-10-09T13:55:17.123Z,101596.78
2022-10-09T13:57:44.967Z,101591.41
2022-10-09T14:00:15.254Z,101585.72
2022-10-09T14:02:44.719Z,101583.44
2022-10-09T14:05:14.623Z,101582.56
2022-10-09T14:07:45.705Z,101579.06
2022-10-09T14:10:14.748Z,101575.47
2022-10-09T14:12:42.718Z,101570.25
2022-10-09T14:15:11.302Z,101565.75
2022-10-09T14:17:40.570Z,101558.47
2022-10-09T14:20:09.108Z,101562.59
2022-10-09T14:22:37.537Z,101558.25
2022-10-09T14:25:06.556Z,101555.66
2022-10-09T14:30:35.769Z,101537.94
2022-10-09T14:33:08.120Z,101545.38
2022-10-09T14:35:36.708Z,101546.91
2022-10-09T14:38:04.986Z,101532.56
2022-10-09T14:40:32.833Z,101532.91
2022-10-09T14:43:00.652Z,101524.59
2022-10-09T14:45:29.007Z,101521.13
2022-10-09T14:47:56.807Z,101519.53
2022-10-09T14:50:26.075Z,101513.13
2022-10-09T14:52:53.813Z,101511.75
2022-10-09T14:55:21.717Z,101522.09
2022-10-09T14:57:49.972Z,101500.44
2022-10-09T15:00:18.130Z,101497.00
2022-10-09T15:02:45.936Z,101503.16
2022-10-09T15:05:14.113Z,101502.63
2022-10-09T15:07:43.370Z,101497.41
2022-10-09T15:10:12.274Z,101498.63
2022-10-09T15:12:40.997Z,101500.13
2022-10-09T15:15:10.141Z,101489.56
2022-10-09T15:17:37.906Z,101485.38
2022-10-09T15:20:07.646Z,101481.06
2022-10-09T15:22:37.272Z,101482.38
2022-10-09T15:25:08.682Z,101470.47
2022-10-09T15:30:58.228Z,101469.00
2022-10-09T15:33:34.431Z,101461.56
2022-10-09T15:36:06.206Z,101458.22
2022-10-09T15:38:36.116Z,101463.69
2022-10-09T15:41:10.160Z,101453.34
2022-10-09T15:43:41.797Z,101455.72
2022-10-09T15:46:09.740Z,101445.16
2022-10-09T15:48:39.417Z,101445.31
2022-10-09T15:51:08.722Z,101440.09
2022-10-09T15:53:36.613Z,101442.31
2022-10-09T15:56:07.021Z,101431.41
2022-10-09T15:58:39.731Z,101428.09
2022-10-09T16:01:13.525Z,101429.31
2022-10-09T16:03:45.752Z,101426.84
2022-10-09T16:06:16.496Z,101416.97
2022-10-09T16:08:46.161Z,101418.19
2022-10-09T16:11:20.315Z,101417.31
2022-10-09T16:13:51.393Z,101410.53
2022-10-09T16:16:21.142Z,101413.47
2022-10-09T16:18:49.519Z,101410.13
2022-10-09T16:21:19.525Z,101402.88
2022-10-09T16:23:47.523Z,101402.50
2022-10-09T16:26:19.676Z,101406.28
2022-10-09T16:28:48.470Z,101405.91
2022-10-09T16:31:20.720Z,101401.25
2022-10-09T16:33:50.853Z,101404.63
2022-10-09T16:36:19.572Z,101398.41
2022-10-09T16:38:48.100Z,101398.84
2022-10-09T16:41:18.615Z,101399.88
2022-10-09T16:43:47.756Z,101391.19
2022-10-09T16:46:19.493Z,101389.59
2022-10-09T16:48:48.225Z,101387.78
2022-10-09T16:51:17.668Z,101390.69
2022-10-09T16:53:45.736Z,101386.53
2022-10-09T16:56:15.644Z,101379.56
2022-10-09T16:58:45.323Z,101387.31
2022-10-09T17:01:13.741Z,101386.06
2022-10-09T17:04:09.062Z,101386.34
2022-10-09T17:06:58.959Z,101384.81
2022-10-09T17:09:29.444Z,101386.88
2022-10-09T17:11:57.494Z,101385.44
2022-10-09T17:14:26.699Z,101380.22
2022-10-09T17:16:54.471Z,101385.50
2022-10-09T17:19:22.350Z,101379.59
2022-10-09T17:21:52.865Z,101381.06
2022-10-09T17:24:20.679Z,101383.25
2022-10-09T17:26:48.453Z,101382.84
2022-10-09T17:29:16.351Z,101384.13
2022-10-09T17:31:48.214Z,101392.56
2022-10-09T17:34:16.714Z,101386.06
2022-10-09T17:36:45.751Z,101387.09
2022-10-09T17:39:16.299Z,101382.91
2022-10-09T17:41:47.006Z,101382.50
2022-10-09T17:44:16.136Z,101386.72
2022-10-09T17:46:45.277Z,101385.16
2022-10-09T17:49:13.273Z,101386.59
2022-10-09T17:51:41.246Z,101379.66
2022-10-09T17:54:12.339Z,101379.09
2022-10-09T17:56:40.596Z,101380.56
2022-10-09T17:59:09.158Z,101388.09
2022-10-09T18:01:37.888Z,101379.56
2022-10-09T18:04:07.045Z,101369.69
2022-10-09T18:06:35.882Z,101366.53
2022-10-09T18:09:05.305Z,101372.47
2022-10-09T18:11:33.333Z,101365.69
2022-10-09T18:14:01.509Z,101360.63
2022-10-09T18:16:35.846Z,101357.28
2022-10-09T18:19:07.915Z,101351.47
2022-10-09T18:21:36.189Z,101355.84
2022-10-09T18:24:04.165Z,101356.13
2022-10-09T18:26:31.949Z,101357.59
2022-10-09T18:29:00.419Z,101352.34
2022-10-09T18:31:28.971Z,101351.06
2022-10-09T18:34:00.764Z,101354.25
2022-10-09T18:36:33.587Z,101358.47
2022-10-09T18:39:02.263Z,101353.22
2022-10-09T18:41:30.140Z,101354.25
2022-10-09T18:43:59.831Z,101348.91
2022-10-09T18:46:31.944Z,101349.31
2022-10-09T18:49:00.371Z,101346.41
2022-10-09T18:51:30.123Z,101342.97
2022-10-09T18:54:02.673Z,101341.50
2022-10-09T18:56:33.331Z,101347.56
2022-10-09T18:59:02.604Z,101344.22
2022-10-09T19:01:30.446Z,101339.16
2022-10-09T19:03:58.457Z,101341.19
2022-10-09T19:06:26.312Z,101342.47
2022-10-09T19:08:57.806Z,101337.97
2022-10-09T19:11:25.750Z,101343.00
2022-10-09T19:13:54.557Z,101343.13
2022-10-09T19:16:24.217Z,101334.19
2022-10-09T19:18:53.166Z,101334.47
2022-10-09T19:21:21.206Z,101331.84
2022-10-09T19:23:49.752Z,101333.00
2022-10-09T19:26:19.412Z,101329.41
2022-10-09T19:28:47.524Z,101333.56
2022-10-09T19:31:15.746Z,101330.97
2022-10-09T19:33:44.329Z,101333.84
2022-10-09T19:36:13.791Z,101330.50
2022-10-09T19:38:43.475Z,101329.94
2022-10-09T19:41:13.594Z,101331.22
2022-10-09T19:43:43.355Z,101331.47
2022-10-09T19:46:14.060Z,101329.16
2022-10-09T19:48:42.129Z,101324.09
2022-10-09T19:51:13.191Z,101316.00
2022-10-09T19:53:42.337Z,101315.69
2022-10-09T19:56:15.173Z,101316.22
2022-10-09T19:58:46.396Z,101315.34
2022-10-09T20:01:15.896Z,101311.72
2022-10-09T20:03:44.238Z,101308.34
2022-10-09T20:06:12.505Z,101304.28
2022-10-09T20:08:45.396Z,101300.06
2022-10-09T20:11:14.839Z,101305.06
2022-10-09T20:13:51.038Z,101301.72
2022-10-09T20:16:23.280Z,101305.16
2022-10-09T20:18:53.845Z,101296.47
2022-10-09T20:21:21.770Z,101299.59
2022-10-09T20:23:49.560Z,101308.25
2022-10-09T20:26:19.078Z,101295.66
2022-10-09T20:28:48.936Z,101303.31
2022-10-09T20:31:19.482Z,101294.47
2022-10-09T20:33:48.277Z,101289.41
2022-10-09T20:36:21.877Z,101291.41
2022-10-09T20:38:50.280Z,101291.94
2022-10-09T20:41:18.193Z,101285.72
2022-10-09T20:43:58.848Z,101294.94
2022-10-09T20:47:24.280Z,101293.44
2022-10-09T20:50:26.047Z,101296.16
2022-10-09T20:56:22.178Z,101288.19
2022-10-09T20:58:50.436Z,101291.16
2022-10-09T21:01:28.728Z,101285.69
2022-10-09T21:03:59.030Z,101287.56
2022-10-09T21:06:27.872Z,101275.88
2022-10-09T21:08:56.422Z,101276.88
2022-10-09T21:11:25.153Z,101270.63
2022-10-09T21:13:53.371Z,101277.88
2022-10-09T21:16:25.033Z,101283.22
2022-10-09T21:18:54.820Z,101267.91
2022-10-09T21:21:22.749Z,101263.53
2022-10-09T21:23:52.480Z,101269.75
2022-10-09T21:26:21.610Z,101267.44
2022-10-09T21:28:53.327Z,101270.03
2022-10-09T21:31:28.785Z,101269.31
2022-10-09T21:33:57.744Z,101266.06
2022-10-09T21:36:33.691Z,101263.19
2022-10-09T21:39:04.623Z,101257.25
2022-10-09T21:41:32.984Z,101260.88
2022-10-09T21:44:01.555Z,101259.13
2022-10-09T21:46:31.809Z,101261.88
2022-10-09T21:49:02.271Z,101257.50
2022-10-09T21:51:32.167Z,101258.63
2022-10-09T21:54:00.095Z,101251.44
2022-10-09T21:56:28.109Z,101250.41
2022-10-09T21:58:59.114Z,101242.34
2022-10-09T22:01:33.245Z,101247.94
2022-10-09T22:04:48.700Z,101247.31
2022-10-09T22:10:58.685Z,101239.19
2022-10-09T22:21:04.708Z,101233.78
2022-10-09T22:23:49.873Z,101229.88
2022-10-09T22:35:07.484Z,101222.00
2022-10-09T22:37:42.265Z,101218.25
2022-10-09T22:46:44.727Z,101217.63
2022-10-09T22:49:47.088Z,101210.56
2022-10-09T22:52:16.567Z,101222.53
2022-10-09T22:54:44.574Z,101217.16
2022-10-09T22:57:12.411Z,101214.41
2022-10-09T22:59:40.172Z,101200.84
2022-10-09T23:02:08.099Z,101206.31
2022-10-09T23:04:36.430Z,101203.72
2022-10-09T23:07:04.393Z,101206.59
2022-10-09T23:09:35.624Z,101200.13
2022-10-09T23:12:03.657Z,101194.91
2022-10-09T23:14:31.532Z,101200.63
2022-10-09T23:16:59.740Z,101197.03
2022-10-09T23:19:27.528Z,101184.47
2022-10-09T23:21:55.403Z,101185.47
2022-10-09T23:24:23.344Z,101186.59
2022-10-09T23:26:52.939Z,101181.09
2022-10-09T23:29:21.762Z,101178.50
2022-10-09T23:31:53.101Z,101172.16
2022-10-09T23:34:21.102Z,101180.63
2022-10-09T23:36:49.155Z,101174.41
2022-10-09T23:39:17.320Z,101170.94
2022-10-09T23:41:45.178Z,101169.31
2022-10-09T23:44:15.967Z,101171.06
2022-10-09T23:46:45.739Z,101177.06
2022-10-09T23:49:13.553Z,101168.84
2022-10-09T23:54:26.872Z,101170.81
2022-10-09T23:57:08.379Z,101167.38
2022-10-09T23:59:45.079Z,101165.75
